sensor_id;sensor_type;location;lat;lon;timestamp;pressure;altitude;pressure_sealevel;temperature;humidity
73936;BME280;62287;50.858;0.252;2023-04-08T00:00:15;102232.88;;;13.96;37.92
73936;BME280;62287;50.858;0.252;2023-04-08T00:00:46;102233.96;;;14.40;38.09
73936;BME280;62287;50.858;0.252;2023-04-08T00:01:16;102234.05;;;13.56;38.23
73936;BME280;62287;50.858;0.252;2023-04-08T00:01:47;102234.93;;;14.18;38.14
73936;BME280;62287;50.858;0.252;2023-04-08T00:02:18;102234.36;;;13.68;38.15
73936;BME280;62287;50.858;0.252;2023-04-08T00:02:49;102234.56;;;14.04;38.02
73936;BME280;62287;50.858;0.252;2023-04-08T00:03:20;102234.23;;;13.69;37.95
73936;BME280;62287;50.858;0.252;2023-04-08T00:03:51;102233.72;;;13.65;38.00
73936;BME280;62287;50.858;0.252;2023-04-08T00:04:22;102232.89;;;13.59;38.00
73936;BME280;62287;50.858;0.252;2023-04-08T00:04:53;102233.23;;;14.73;37.79
73936;BME280;62287;50.858;0.252;2023-04-08T00:05:24;102233.06;;;13.86;37.72
73936;BME280;62287;50.858;0.252;2023-04-08T00:05:55;102232.31;;;14.07;37.85
73936;BME280;62287;50.858;0.252;2023-04-08T00:06:26;102232.42;;;13.68;37.84
73936;BME280;62287;50.858;0.252;2023-04-08T00:06:57;102232.60;;;13.57;38.06
73936;BME280;62287;50.858;0.252;2023-04-08T00:07:28;102232.84;;;13.92;38.13
73936;BME280;62287;50.858;0.252;2023-04-08T00:07:59;102231.63;;;14.10;37.84
73936;BME280;62287;50.858;0.252;2023-04-08T00:08:30;102230.77;;;13.77;37.86
73936;BME280;62287;50.858;0.252;2023-04-08T00:09:01;102232.60;;;14.30;38.06
73936;BME280;62287;50.858;0.252;2023-04-08T00:09:32;102231.37;;;13.76;38.04
73936;BME280;62287;50.858;0.252;2023-04-08T00:10:04;102233.25;;;13.43;38.19
73936;BME280;62287;50.858;0.252;2023-04-08T00:10:35;102231.96;;;13.78;38.18
73936;BME280;62287;50.858;0.252;2023-04-08T00:11:06;102232.00;;;13.66;38.05
73936;BME280;62287;50.858;0.252;2023-04-08T00:11:37;102229.73;;;13.61;37.96
73936;BME280;62287;50.858;0.252;2023-04-08T00:12:08;102229.03;;;13.93;38.06
73936;BME280;62287;50.858;0.252;2023-04-08T00:12:39;102229.91;;;13.67;37.98
73936;BME280;62287;50.858;0.252;2023-04-08T00:13:11;102229.21;;;13.99;38.09
73936;BME280;62287;50.858;0.252;2023-04-08T00:13:42;102231.01;;;13.55;38.07
73936;BME280;62287;50.858;0.252;2023-04-08T00:14:13;102230.15;;;14.39;38.13
73936;BME280;62287;50.858;0.252;2023-04-08T00:14:44;102229.28;;;13.95;37.99
73936;BME280;62287;50.858;0.252;2023-04-08T00:15:15;102228.54;;;13.55;38.09
73936;BME280;62287;50.858;0.252;2023-04-08T00:15:46;102227.10;;;14.18;37.73
73936;BME280;62287;50.858;0.252;2023-04-08T00:16:17;102226.12;;;14.20;37.55
73936;BME280;62287;50.858;0.252;2023-04-08T00:16:48;102224.74;;;14.23;37.46
73936;BME280;62287;50.858;0.252;2023-04-08T00:17:19;102225.78;;;14.78;37.55
73936;BME280;62287;50.858;0.252;2023-04-08T00:17:50;102228.83;;;13.98;37.69
73936;BME280;62287;50.858;0.252;2023-04-08T00:18:20;102224.28;;;14.35;37.34
73936;BME280;62287;50.858;0.252;2023-04-08T00:18:51;102225.97;;;14.26;37.27
73936;BME280;62287;50.858;0.252;2023-04-08T00:19:22;102224.67;;;14.06;37.20
73936;BME280;62287;50.858;0.252;2023-04-08T00:19:53;102225.48;;;14.03;37.14
73936;BME280;62287;50.858;0.252;2023-04-08T00:20:24;102225.97;;;14.00;37.14
73936;BME280;62287;50.858;0.252;2023-04-08T00:20:55;102227.24;;;14.11;37.29
73936;BME280;62287;50.858;0.252;2023-04-08T00:21:26;102228.25;;;13.90;37.17
73936;BME280;62287;50.858;0.252;2023-04-08T00:21:57;102229.36;;;13.80;37.26
73936;BME280;62287;50.858;0.252;2023-04-08T00:22:28;102229.28;;;14.18;37.10
73936;BME280;62287;50.858;0.252;2023-04-08T00:22:59;102225.74;;;14.43;36.99
73936;BME280;62287;50.858;0.252;2023-04-08T00:23:30;102228.27;;;14.00;37.11
73936;BME280;62287;50.858;0.252;2023-04-08T00:24:01;102229.36;;;14.38;37.06
73936;BME280;62287;50.858;0.252;2023-04-08T00:24:32;102230.90;;;13.62;37.06
73936;BME280;62287;50.858;0.252;2023-04-08T00:25:04;102228.89;;;14.05;36.96
73936;BME280;62287;50.858;0.252;2023-04-08T00:25:35;102229.25;;;14.08;37.03
73936;BME280;62287;50.858;0.252;2023-04-08T00:26:06;102228.45;;;14.11;36.96
73936;BME280;62287;50.858;0.252;2023-04-08T00:26:37;102228.13;;;14.48;36.98
73936;BME280;62287;50.858;0.252;2023-04-08T00:27:08;102229.13;;;14.30;36.86
73936;BME280;62287;50.858;0.252;2023-04-08T00:27:39;102229.73;;;14.13;36.84
73936;BME280;62287;50.858;0.252;2023-04-08T00:28:10;102229.98;;;14.52;36.91
73936;BME280;62287;50.858;0.252;2023-04-08T00:28:42;102227.68;;;14.29;36.80
73936;BME280;62287;50.858;0.252;2023-04-08T00:29:13;102228.37;;;14.41;36.87
73936;BME280;62287;50.858;0.252;2023-04-08T00:29:44;102228.70;;;14.54;36.83
73936;BME280;62287;50.858;0.252;2023-04-08T00:30:15;102228.61;;;14.16;36.90
73936;BME280;62287;50.858;0.252;2023-04-08T00:30:46;102229.40;;;14.45;36.93
73936;BME280;62287;50.858;0.252;2023-04-08T00:31:17;102230.48;;;14.62;37.12
73936;BME280;62287;50.858;0.252;2023-04-08T00:31:48;102230.21;;;13.75;37.36
73936;BME280;62287;50.858;0.252;2023-04-08T00:32:19;102231.82;;;14.24;37.50
73936;BME280;62287;50.858;0.252;2023-04-08T00:32:50;102229.04;;;13.29;37.58
73936;BME280;62287;50.858;0.252;2023-04-08T00:33:21;102229.09;;;13.60;37.67
73936;BME280;62287;50.858;0.252;2023-04-08T00:33:51;102227.88;;;13.86;37.73
73936;BME280;62287;50.858;0.252;2023-04-08T00:34:22;102227.81;;;13.63;37.72
73936;BME280;62287;50.858;0.252;2023-04-08T00:34:53;102226.61;;;13.62;37.61
73936;BME280;62287;50.858;0.252;2023-04-08T00:35:24;102227.92;;;13.81;37.56
73936;BME280;62287;50.858;0.252;2023-04-08T00:35:55;102227.81;;;14.60;37.62
73936;BME280;62287;50.858;0.252;2023-04-08T00:36:26;102227.04;;;14.50;37.63
73936;BME280;62287;50.858;0.252;2023-04-08T00:36:58;102226.44;;;14.28;37.78
73936;BME280;62287;50.858;0.252;2023-04-08T00:37:29;102227.30;;;14.35;37.77
73936;BME280;62287;50.858;0.252;2023-04-08T00:38:00;102228.60;;;13.88;37.78
73936;BME280;62287;50.858;0.252;2023-04-08T00:38:31;102227.90;;;13.51;37.84
73936;BME280;62287;50.858;0.252;2023-04-08T00:39:02;102230.37;;;14.29;37.85
73936;BME280;62287;50.858;0.252;2023-04-08T00:39:33;102229.09;;;13.80;37.84
73936;BME280;62287;50.858;0.252;2023-04-08T00:40:05;102230.43;;;13.71;37.83
73936;BME280;62287;50.858;0.252;2023-04-08T00:40:36;102229.24;;;13.83;37.82
73936;BME280;62287;50.858;0.252;2023-04-08T00:41:07;102229.12;;;13.91;37.84
73936;BME280;62287;50.858;0.252;2023-04-08T00:41:38;102228.13;;;14.03;37.88
73936;BME280;62287;50.858;0.252;2023-04-08T00:42:09;102227.33;;;13.86;37.84
73936;BME280;62287;50.858;0.252;2023-04-08T00:42:39;102228.47;;;14.28;37.74
73936;BME280;62287;50.858;0.252;2023-04-08T00:43:11;102228.47;;;13.80;37.85
73936;BME280;62287;50.858;0.252;2023-04-08T00:43:42;102227.49;;;13.78;37.85
73936;BME280;62287;50.858;0.252;2023-04-08T00:44:13;102226.55;;;13.58;37.96
73936;BME280;62287;50.858;0.252;2023-04-08T00:44:44;102227.63;;;13.35;38.03
73936;BME280;62287;50.858;0.252;2023-04-08T00:45:15;102226.60;;;14.18;37.92
73936;BME280;62287;50.858;0.252;2023-04-08T00:45:46;102228.66;;;14.44;37.81
73936;BME280;62287;50.858;0.252;2023-04-08T00:46:17;102226.46;;;14.48;37.76
73936;BME280;62287;50.858;0.252;2023-04-08T00:46:48;102226.20;;;14.46;37.77
73936;BME280;62287;50.858;0.252;2023-04-08T00:47:19;102228.03;;;14.29;37.91
73936;BME280;62287;50.858;0.252;2023-04-08T00:47:50;102227.87;;;14.19;37.90
73936;BME280;62287;50.858;0.252;2023-04-08T00:48:21;102227.47;;;13.54;37.84
73936;BME280;62287;50.858;0.252;2023-04-08T00:48:52;102228.30;;;14.20;37.99
73936;BME280;62287;50.858;0.252;2023-04-08T00:49:24;102227.32;;;14.02;38.04
73936;BME280;62287;50.858;0.252;2023-04-08T00:49:55;102227.86;;;13.72;38.14
73936;BME280;62287;50.858;0.252;2023-04-08T00:50:26;102227.24;;;14.03;37.81
73936;BME280;62287;50.858;0.252;2023-04-08T00:50:58;102229.67;;;13.87;37.73
73936;BME280;62287;50.858;0.252;2023-04-08T00:51:29;102229.31;;;13.53;37.96
73936;BME280;62287;50.858;0.252;2023-04-08T00:52:00;102229.09;;;14.08;37.67
73936;BME280;62287;50.858;0.252;2023-04-08T00:52:31;102230.03;;;14.35;37.86
73936;BME280;62287;50.858;0.252;2023-04-08T00:53:02;102230.93;;;13.74;37.87
73936;BME280;62287;50.858;0.252;2023-04-08T00:53:33;102229.29;;;14.11;37.91
73936;BME280;62287;50.858;0.252;2023-04-08T00:54:04;102230.94;;;14.05;37.99
73936;BME280;62287;50.858;0.252;2023-04-08T00:54:36;102229.41;;;13.71;38.11
73936;BME280;62287;50.858;0.252;2023-04-08T00:55:08;102228.67;;;13.93;38.30
73936;BME280;62287;50.858;0.252;2023-04-08T00:55:38;102228.89;;;13.63;37.81
73936;BME280;62287;50.858;0.252;2023-04-08T00:56:10;102228.91;;;13.82;37.90
73936;BME280;62287;50.858;0.252;2023-04-08T00:56:42;102230.54;;;13.83;38.06
73936;BME280;62287;50.858;0.252;2023-04-08T00:57:14;102230.77;;;13.81;38.00
73936;BME280;62287;50.858;0.252;2023-04-08T00:57:46;102227.85;;;14.05;37.98
73936;BME280;62287;50.858;0.252;2023-04-08T00:58:17;102227.70;;;13.67;38.07
73936;BME280;62287;50.858;0.252;2023-04-08T00:58:49;102227.60;;;13.76;38.13
73936;BME280;62287;50.858;0.252;2023-04-08T00:59:20;102227.37;;;13.77;38.18
73936;BME280;62287;50.858;0.252;2023-04-08T00:59:51;102226.53;;;13.77;38.14
73936;BME280;62287;50.858;0.252;2023-04-08T01:00:23;102224.37;;;13.85;38.11
73936;BME280;62287;50.858;0.252;2023-04-08T01:01:04;102221.89;;;13.62;38.26
73936;BME280;62287;50.858;0.252;2023-04-08T01:01:42;102223.82;;;14.04;38.11
73936;BME280;62287;50.858;0.252;2023-04-08T01:02:20;102224.03;;;13.93;38.28
73936;BME280;62287;50.858;0.252;2023-04-08T01:03:00;102223.62;;;14.08;38.13
73936;BME280;62287;50.858;0.252;2023-04-08T01:03:43;102224.56;;;13.66;38.19
73936;BME280;62287;50.858;0.252;2023-04-08T01:04:25;102226.72;;;13.37;38.10
73936;BME280;62287;50.858;0.252;2023-04-08T01:05:02;102227.04;;;14.14;38.12
73936;BME280;62287;50.858;0.252;2023-04-08T01:05:38;102226.53;;;13.90;38.05
73936;BME280;62287;50.858;0.252;2023-04-08T01:06:19;102226.04;;;14.21;38.07
73936;BME280;62287;50.858;0.252;2023-04-08T01:06:56;102224.27;;;13.23;38.18
73936;BME280;62287;50.858;0.252;2023-04-08T01:07:32;102226.23;;;13.28;38.16
73936;BME280;62287;50.858;0.252;2023-04-08T01:08:06;102228.94;;;14.34;38.01
73936;BME280;62287;50.858;0.252;2023-04-08T01:08:39;102227.83;;;13.86;38.05
73936;BME280;62287;50.858;0.252;2023-04-08T01:09:12;102229.15;;;13.82;37.97
73936;BME280;62287;50.858;0.252;2023-04-08T01:09:47;102230.20;;;14.22;37.96
73936;BME280;62287;50.858;0.252;2023-04-08T01:10:23;102230.98;;;14.15;38.04
73936;BME280;62287;50.858;0.252;2023-04-08T01:11:00;102229.01;;;13.75;38.04
73936;BME280;62287;50.858;0.252;2023-04-08T01:11:33;102230.07;;;13.83;38.07
73936;BME280;62287;50.858;0.252;2023-04-08T01:12:07;102227.17;;;13.30;38.07
73936;BME280;62287;50.858;0.252;2023-04-08T01:12:42;102226.94;;;14.08;37.86
73936;BME280;62287;50.858;0.252;2023-04-08T01:13:17;102228.12;;;13.86;37.97
73936;BME280;62287;50.858;0.252;2023-04-08T01:13:54;102226.09;;;13.94;38.14
73936;BME280;62287;50.858;0.252;2023-04-08T01:14:27;102228.75;;;13.69;38.00
73936;BME280;62287;50.858;0.252;2023-04-08T01:15:02;102226.68;;;13.44;37.98
73936;BME280;62287;50.858;0.252;2023-04-08T01:15:36;102226.98;;;14.11;38.01
73936;BME280;62287;50.858;0.252;2023-04-08T01:16:09;102226.17;;;14.14;37.91
73936;BME280;62287;50.858;0.252;2023-04-08T01:16:43;102226.88;;;14.11;37.98
73936;BME280;62287;50.858;0.252;2023-04-08T01:17:16;102224.88;;;13.24;38.02
73936;BME280;62287;50.858;0.252;2023-04-08T01:17:52;102225.39;;;13.51;37.88
73936;BME280;62287;50.858;0.252;2023-04-08T01:18:23;102224.83;;;13.81;37.81
73936;BME280;62287;50.858;0.252;2023-04-08T01:18:55;102226.44;;;13.60;37.81
73936;BME280;62287;50.858;0.252;2023-04-08T01:19:30;102226.43;;;13.87;37.78
73936;BME280;62287;50.858;0.252;2023-04-08T01:20:04;102225.81;;;13.58;37.70
73936;BME280;62287;50.858;0.252;2023-04-08T01:20:35;102225.82;;;13.99;37.61
73936;BME280;62287;50.858;0.252;2023-04-08T01:21:07;102226.74;;;14.13;37.38
73936;BME280;62287;50.858;0.252;2023-04-08T01:21:38;102227.45;;;14.32;37.26
73936;BME280;62287;50.858;0.252;2023-04-08T01:22:14;102227.23;;;13.73;37.45
73936;BME280;62287;50.858;0.252;2023-04-08T01:22:59;102225.50;;;14.31;37.47
73936;BME280;62287;50.858;0.252;2023-04-08T01:23:40;102223.84;;;13.68;37.46
73936;BME280;62287;50.858;0.252;2023-04-08T01:24:19;102225.06;;;14.31;37.61
73936;BME280;62287;50.858;0.252;2023-04-08T01:24:58;102222.65;;;13.76;37.34
73936;BME280;62287;50.858;0.252;2023-04-08T01:25:31;102224.05;;;14.46;37.47
73936;BME280;62287;50.858;0.252;2023-04-08T01:26:03;102222.08;;;13.79;37.54
73936;BME280;62287;50.858;0.252;2023-04-08T01:26:34;102221.40;;;13.49;37.52
73936;BME280;62287;50.858;0.252;2023-04-08T01:27:06;102221.80;;;13.90;37.69
73936;BME280;62287;50.858;0.252;2023-04-08T01:27:39;102217.76;;;13.54;37.68
73936;BME280;62287;50.858;0.252;2023-04-08T01:28:13;102219.01;;;13.85;37.34
73936;BME280;62287;50.858;0.252;2023-04-08T01:28:45;102217.57;;;14.53;37.12
73936;BME280;62287;50.858;0.252;2023-04-08T01:29:16;102218.24;;;14.18;37.19
73936;BME280;62287;50.858;0.252;2023-04-08T01:29:48;102217.77;;;14.15;37.18
73936;BME280;62287;50.858;0.252;2023-04-08T01:30:21;102218.12;;;14.08;37.19
73936;BME280;62287;50.858;0.252;2023-04-08T01:30:56;102218.85;;;13.76;37.23
73936;BME280;62287;50.858;0.252;2023-04-08T01:31:29;102217.40;;;13.95;37.02
73936;BME280;62287;50.858;0.252;2023-04-08T01:32:02;102218.70;;;14.30;37.06
73936;BME280;62287;50.858;0.252;2023-04-08T01:32:34;102218.58;;;14.19;37.27
73936;BME280;62287;50.858;0.252;2023-04-08T01:33:07;102218.39;;;13.98;37.42
73936;BME280;62287;50.858;0.252;2023-04-08T01:33:40;102218.03;;;13.83;37.27
73936;BME280;62287;50.858;0.252;2023-04-08T01:34:13;102217.68;;;13.87;37.10
73936;BME280;62287;50.858;0.252;2023-04-08T01:34:45;102218.44;;;13.76;37.14
73936;BME280;62287;50.858;0.252;2023-04-08T01:35:17;102218.62;;;13.71;37.29
73936;BME280;62287;50.858;0.252;2023-04-08T01:35:50;102219.37;;;14.34;37.35
73936;BME280;62287;50.858;0.252;2023-04-08T01:36:22;102219.70;;;14.45;37.42
73936;BME280;62287;50.858;0.252;2023-04-08T01:36:54;102219.41;;;13.71;37.39
73936;BME280;62287;50.858;0.252;2023-04-08T01:37:27;102218.68;;;13.50;37.42
73936;BME280;62287;50.858;0.252;2023-04-08T01:37:59;102218.14;;;13.85;37.20
73936;BME280;62287;50.858;0.252;2023-04-08T01:38:33;102216.31;;;14.35;36.96
73936;BME280;62287;50.858;0.252;2023-04-08T01:39:05;102217.08;;;14.11;37.09
73936;BME280;62287;50.858;0.252;2023-04-08T01:39:37;102216.20;;;13.54;37.20
73936;BME280;62287;50.858;0.252;2023-04-08T01:40:11;102216.85;;;13.97;37.23
73936;BME280;62287;50.858;0.252;2023-04-08T01:40:42;102215.29;;;13.55;37.29
73936;BME280;62287;50.858;0.252;2023-04-08T01:41:16;102215.04;;;13.46;37.47
73936;BME280;62287;50.858;0.252;2023-04-08T01:41:48;102216.84;;;13.81;37.59
73936;BME280;62287;50.858;0.252;2023-04-08T01:42:21;102215.33;;;14.21;37.50
73936;BME280;62287;50.858;0.252;2023-04-08T01:42:55;102215.31;;;13.64;37.50
73936;BME280;62287;50.858;0.252;2023-04-08T01:43:32;102215.00;;;14.65;37.16
73936;BME280;62287;50.858;0.252;2023-04-08T01:44:09;102216.71;;;13.94;37.05
73936;BME280;62287;50.858;0.252;2023-04-08T01:44:41;102215.12;;;14.20;37.00
73936;BME280;62287;50.858;0.252;2023-04-08T01:45:13;102214.67;;;13.72;37.08
73936;BME280;62287;50.858;0.252;2023-04-08T01:45:46;102214.95;;;14.16;37.23
73936;BME280;62287;50.858;0.252;2023-04-08T01:46:19;102217.35;;;13.99;37.30
73936;BME280;62287;50.858;0.252;2023-04-08T01:46:52;102217.05;;;13.59;37.35
73936;BME280;62287;50.858;0.252;2023-04-08T01:47:30;102218.10;;;13.58;37.60
73936;BME280;62287;50.858;0.252;2023-04-08T01:48:01;102218.96;;;14.07;37.52
73936;BME280;62287;50.858;0.252;2023-04-08T01:48:39;102219.18;;;13.67;37.70
73936;BME280;62287;50.858;0.252;2023-04-08T01:49:10;102220.31;;;13.58;37.80
73936;BME280;62287;50.858;0.252;2023-04-08T01:49:42;102220.15;;;13.29;37.74
73936;BME280;62287;50.858;0.252;2023-04-08T01:50:15;102222.94;;;13.51;37.48
73936;BME280;62287;50.858;0.252;2023-04-08T01:50:46;102222.63;;;13.60;37.36
73936;BME280;62287;50.858;0.252;2023-04-08T01:51:19;102223.18;;;13.43;37.43
73936;BME280;62287;50.858;0.252;2023-04-08T01:51:52;102222.68;;;13.67;37.44
73936;BME280;62287;50.858;0.252;2023-04-08T01:52:28;102223.45;;;14.34;37.52
73936;BME280;62287;50.858;0.252;2023-04-08T01:53:00;102224.90;;;13.87;37.60
73936;BME280;62287;50.858;0.252;2023-04-08T01:53:32;102222.70;;;13.86;37.68
73936;BME280;62287;50.858;0.252;2023-04-08T01:54:04;102221.58;;;14.09;37.70
73936;BME280;62287;50.858;0.252;2023-04-08T01:54:35;102223.23;;;13.93;37.60
73936;BME280;62287;50.858;0.252;2023-04-08T01:55:07;102223.36;;;13.87;37.67
73936;BME280;62287;50.858;0.252;2023-04-08T01:55:39;102221.66;;;13.58;37.83
73936;BME280;62287;50.858;0.252;2023-04-08T01:56:11;102224.77;;;13.88;37.64
73936;BME280;62287;50.858;0.252;2023-04-08T01:56:43;102224.16;;;14.14;37.65
73936;BME280;62287;50.858;0.252;2023-04-08T01:57:18;102222.57;;;13.83;37.78
73936;BME280;62287;50.858;0.252;2023-04-08T01:57:53;102224.69;;;14.08;37.73
73936;BME280;62287;50.858;0.252;2023-04-08T01:58:28;102222.80;;;14.14;37.63
73936;BME280;62287;50.858;0.252;2023-04-08T01:59:02;102223.63;;;13.93;37.58
73936;BME280;62287;50.858;0.252;2023-04-08T01:59:38;102222.79;;;14.10;37.70
73936;BME280;62287;50.858;0.252;2023-04-08T02:00:11;102221.16;;;14.08;37.73
73936;BME280;62287;50.858;0.252;2023-04-08T02:00:43;102221.00;;;13.87;37.50
73936;BME280;62287;50.858;0.252;2023-04-08T02:01:17;102221.56;;;14.14;37.60
73936;BME280;62287;50.858;0.252;2023-04-08T02:01:50;102221.27;;;14.22;37.67
73936;BME280;62287;50.858;0.252;2023-04-08T02:02:24;102221.70;;;13.74;37.56
73936;BME280;62287;50.858;0.252;2023-04-08T02:02:56;102222.01;;;13.38;37.56
73936;BME280;62287;50.858;0.252;2023-04-08T02:03:29;102222.34;;;14.24;37.54
73936;BME280;62287;50.858;0.252;2023-04-08T02:04:02;102222.36;;;13.99;37.76
73936;BME280;62287;50.858;0.252;2023-04-08T02:04:34;102222.35;;;14.03;37.79
73936;BME280;62287;50.858;0.252;2023-04-08T02:05:06;102220.93;;;13.59;37.83
73936;BME280;62287;50.858;0.252;2023-04-08T02:05:38;102221.30;;;13.53;37.83
73936;BME280;62287;50.858;0.252;2023-04-08T02:06:09;102222.61;;;13.84;37.85
73936;BME280;62287;50.858;0.252;2023-04-08T02:06:40;102222.56;;;14.07;37.64
73936;BME280;62287;50.858;0.252;2023-04-08T02:07:11;102223.58;;;14.43;37.35
73936;BME280;62287;50.858;0.252;2023-04-08T02:07:42;102222.77;;;14.25;37.32
73936;BME280;62287;50.858;0.252;2023-04-08T02:08:13;102223.04;;;14.14;37.63
73936;BME280;62287;50.858;0.252;2023-04-08T02:08:44;102224.27;;;14.30;37.46
73936;BME280;62287;50.858;0.252;2023-04-08T02:09:15;102221.42;;;13.79;37.54
73936;BME280;62287;50.858;0.252;2023-04-08T02:09:46;102223.32;;;14.04;37.71
73936;BME280;62287;50.858;0.252;2023-04-08T02:10:17;102224.84;;;14.16;37.57
73936;BME280;62287;50.858;0.252;2023-04-08T02:10:48;102222.87;;;13.50;37.85
73936;BME280;62287;50.858;0.252;2023-04-08T02:11:19;102222.68;;;13.88;37.59
73936;BME280;62287;50.858;0.252;2023-04-08T02:11:50;102220.97;;;14.00;37.57
73936;BME280;62287;50.858;0.252;2023-04-08T02:12:22;102220.95;;;13.64;37.50
73936;BME280;62287;50.858;0.252;2023-04-08T02:12:53;102224.53;;;14.14;37.50
73936;BME280;62287;50.858;0.252;2023-04-08T02:13:24;102223.19;;;14.06;37.66
73936;BME280;62287;50.858;0.252;2023-04-08T02:13:55;102221.56;;;13.68;37.53
73936;BME280;62287;50.858;0.252;2023-04-08T02:14:27;102223.13;;;13.93;37.43
73936;BME280;62287;50.858;0.252;2023-04-08T02:14:58;102219.13;;;14.08;37.43
73936;BME280;62287;50.858;0.252;2023-04-08T02:15:33;102220.20;;;13.87;37.39
73936;BME280;62287;50.858;0.252;2023-04-08T02:16:18;102218.17;;;13.45;37.76
73936;BME280;62287;50.858;0.252;2023-04-08T02:16:53;102218.02;;;14.07;37.76
73936;BME280;62287;50.858;0.252;2023-04-08T02:17:40;102217.79;;;13.56;38.04
73936;BME280;62287;50.858;0.252;2023-04-08T02:18:15;102218.46;;;13.96;37.93
73936;BME280;62287;50.858;0.252;2023-04-08T02:18:54;102217.18;;;13.77;38.04
73936;BME280;62287;50.858;0.252;2023-04-08T02:19:29;102215.99;;;14.04;37.90
73936;BME280;62287;50.858;0.252;2023-04-08T02:20:05;102217.25;;;13.65;37.94
73936;BME280;62287;50.858;0.252;2023-04-08T02:20:39;102216.63;;;14.02;37.94
73936;BME280;62287;50.858;0.252;2023-04-08T02:21:14;102217.61;;;14.03;37.95
73936;BME280;62287;50.858;0.252;2023-04-08T02:21:47;102218.20;;;13.77;38.12
73936;BME280;62287;50.858;0.252;2023-04-08T02:22:24;102220.23;;;13.52;38.08
73936;BME280;62287;50.858;0.252;2023-04-08T02:23:02;102218.68;;;14.04;37.93
73936;BME280;62287;50.858;0.252;2023-04-08T02:23:37;102220.32;;;13.96;37.98
73936;BME280;62287;50.858;0.252;2023-04-08T02:24:09;102218.23;;;13.68;38.20
73936;BME280;62287;50.858;0.252;2023-04-08T02:24:42;102220.14;;;13.57;38.06
73936;BME280;62287;50.858;0.252;2023-04-08T02:25:16;102220.90;;;13.79;38.09
73936;BME280;62287;50.858;0.252;2023-04-08T02:25:52;102220.40;;;13.60;38.05
73936;BME280;62287;50.858;0.252;2023-04-08T02:26:25;102219.75;;;13.24;38.17
73936;BME280;62287;50.858;0.252;2023-04-08T02:26:58;102221.93;;;13.98;37.97
73936;BME280;62287;50.858;0.252;2023-04-08T02:27:33;102223.21;;;13.56;37.97
73936;BME280;62287;50.858;0.252;2023-04-08T02:28:08;102223.35;;;13.83;38.02
73936;BME280;62287;50.858;0.252;2023-04-08T02:28:40;102223.09;;;13.20;37.85
73936;BME280;62287;50.858;0.252;2023-04-08T02:29:13;102222.83;;;14.06;37.69
73936;BME280;62287;50.858;0.252;2023-04-08T02:29:45;102221.27;;;13.99;37.73
73936;BME280;62287;50.858;0.252;2023-04-08T02:30:18;102221.99;;;13.84;37.73
73936;BME280;62287;50.858;0.252;2023-04-08T02:30:51;102220.92;;;13.67;37.87
73936;BME280;62287;50.858;0.252;2023-04-08T02:31:22;102222.19;;;13.92;37.87
73936;BME280;62287;50.858;0.252;2023-04-08T02:31:55;102222.37;;;13.46;37.95
73936;BME280;62287;50.858;0.252;2023-04-08T02:32:27;102222.37;;;13.21;37.85
73936;BME280;62287;50.858;0.252;2023-04-08T02:33:00;102222.67;;;13.68;37.84
73936;BME280;62287;50.858;0.252;2023-04-08T02:33:33;102225.50;;;13.63;37.80
73936;BME280;62287;50.858;0.252;2023-04-08T02:34:05;102224.87;;;13.68;37.71
73936;BME280;62287;50.858;0.252;2023-04-08T02:34:39;102225.17;;;13.41;37.66
73936;BME280;62287;50.858;0.252;2023-04-08T02:35:11;102226.35;;;13.99;37.63
73936;BME280;62287;50.858;0.252;2023-04-08T02:35:44;102223.67;;;13.60;37.66
73936;BME280;62287;50.858;0.252;2023-04-08T02:36:15;102225.51;;;13.61;37.89
73936;BME280;62287;50.858;0.252;2023-04-08T02:36:47;102227.37;;;13.60;37.84
73936;BME280;62287;50.858;0.252;2023-04-08T02:37:18;102225.76;;;13.98;37.87
73936;BME280;62287;50.858;0.252;2023-04-08T02:37:49;102225.13;;;13.69;37.72
73936;BME280;62287;50.858;0.252;2023-04-08T02:38:20;102226.92;;;13.47;37.86
73936;BME280;62287;50.858;0.252;2023-04-08T02:38:51;102227.40;;;13.93;37.80
73936;BME280;62287;50.858;0.252;2023-04-08T02:39:30;102225.72;;;13.54;37.73
73936;BME280;62287;50.858;0.252;2023-04-08T02:40:01;102228.18;;;13.91;37.63
73936;BME280;62287;50.858;0.252;2023-04-08T02:40:33;102227.13;;;13.10;37.76
73936;BME280;62287;50.858;0.252;2023-04-08T02:41:04;102228.65;;;13.52;37.73
73936;BME280;62287;50.858;0.252;2023-04-08T02:41:35;102227.63;;;13.20;37.60
73936;BME280;62287;50.858;0.252;2023-04-08T02:42:06;102229.71;;;13.50;37.62
73936;BME280;62287;50.858;0.252;2023-04-08T02:42:37;102229.69;;;13.43;37.73
73936;BME280;62287;50.858;0.252;2023-04-08T02:43:08;102228.95;;;13.10;37.94
73936;BME280;62287;50.858;0.252;2023-04-08T02:43:39;102228.10;;;13.64;37.91
73936;BME280;62287;50.858;0.252;2023-04-08T02:44:10;102227.79;;;13.66;37.78
73936;BME280;62287;50.858;0.252;2023-04-08T02:44:41;102230.50;;;13.69;37.63
73936;BME280;62287;50.858;0.252;2023-04-08T02:45:12;102230.81;;;13.65;37.74
73936;BME280;62287;50.858;0.252;2023-04-08T02:45:43;102230.47;;;13.67;37.67
73936;BME280;62287;50.858;0.252;2023-04-08T02:46:15;102231.56;;;14.02;37.76
73936;BME280;62287;50.858;0.252;2023-04-08T02:46:46;102231.55;;;14.02;37.66
73936;BME280;62287;50.858;0.252;2023-04-08T02:47:17;102233.43;;;13.90;37.83
73936;BME280;62287;50.858;0.252;2023-04-08T02:47:48;102233.21;;;13.78;38.01
73936;BME280;62287;50.858;0.252;2023-04-08T02:48:19;102234.26;;;13.87;38.01
73936;BME280;62287;50.858;0.252;2023-04-08T02:48:50;102234.85;;;13.83;38.03
73936;BME280;62287;50.858;0.252;2023-04-08T02:49:21;102235.86;;;13.74;38.16
73936;BME280;62287;50.858;0.252;2023-04-08T02:49:52;102234.88;;;13.45;37.93
73936;BME280;62287;50.858;0.252;2023-04-08T02:50:23;102235.20;;;13.95;37.79